Time;durP1;ratioP1;P1;durP2;ratioP2;P2;SDS_P1;SDS_P2;PMS_P1;PMS_P2;Temp;Humidity;BMP_temperature;BMP_pressure;BME280_temperature;BME280_humidity;BME280_pressure;Samples;Min_cycle;Max_cycle;Signal;HPM_P1;HPM_P2
2021/03/05 00:05:34;;;;;;;14.30;10.15;;;;;;;3.77;75.13;97559.53;10127693;29;20472;-79
2021/03/05 00:10:53;;;;;;;15.25;10.82;;;;;;;3.73;75.52;97557.84;10108811;29;20493;-79
2021/03/05 00:16:13;;;;;;;15.50;10.93;;;;;;;3.75;75.15;97557.28;10121474;29;20044;-79
2021/03/05 00:21:34;;;;;;;16.50;11.20;;;;;;;3.73;75.30;97546.81;10134908;29;20484;-79
2021/03/05 00:26:53;;;;;;;18.02;11.63;;;;;;;3.71;75.64;97579.75;10133862;29;20048;-79
2021/03/05 00:32:13;;;;;;;16.35;10.95;;;;;;;3.73;75.66;97582.69;10119902;29;20049;-79
2021/03/05 00:37:33;;;;;;;16.40;12.27;;;;;;;3.81;75.59;97584.72;10106864;29;20449;-79
2021/03/05 00:42:53;;;;;;;18.48;11.68;;;;;;;3.79;75.38;97576.25;10132795;29;20126;-79
2021/03/05 00:48:13;;;;;;;15.57;10.85;;;;;;;3.65;75.28;97576.44;10106014;29;20132;-79
2021/03/05 00:53:33;;;;;;;15.75;11.07;;;;;;;3.64;75.33;97582.50;10106123;29;20053;-79
2021/03/05 00:58:55;;;;;;;15.05;11.07;;;;;;;3.62;75.44;97590.63;10118428;29;20055;-79
2021/03/05 01:04:21;;;;;;;15.82;11.38;;;;;;;3.56;75.35;97581.75;10120132;29;20044;-79
2021/03/05 01:09:45;;;;;;;14.77;11.20;;;;;;;3.54;75.23;97579.56;10119320;29;20057;-79
2021/03/05 01:15:06;;;;;;;15.48;10.43;;;;;;;3.56;75.33;97579.75;10131292;29;20048;-79
2021/03/05 01:20:27;;;;;;;17.83;11.63;;;;;;;3.56;75.39;97568.69;10118343;29;20040;-79
2021/03/05 01:25:47;;;;;;;17.08;10.90;;;;;;;3.59;75.07;97575.16;10105242;29;20056;-79
2021/03/05 01:31:07;;;;;;;15.77;11.43;;;;;;;3.60;75.21;97576.63;10131146;29;20045;-79
2021/03/05 01:36:27;;;;;;;17.73;11.55;;;;;;;3.58;75.02;97571.66;10105228;29;20049;-79
2021/03/05 01:41:47;;;;;;;19.48;12.65;;;;;;;3.44;74.56;97560.06;10104173;29;20060;-79
2021/03/05 01:47:07;;;;;;;19.80;12.95;;;;;;;3.35;74.91;97571.63;10117977;29;20386;-79
2021/03/05 01:52:27;;;;;;;22.02;14.68;;;;;;;3.29;75.22;97564.84;10099922;29;20052;-79
2021/03/05 01:57:47;;;;;;;23.77;15.18;;;;;;;3.25;75.29;97576.22;10134975;29;20404;-79
2021/03/05 02:03:08;;;;;;;25.35;16.10;;;;;;;3.21;75.34;97580.63;10108362;29;20041;-79
2021/03/05 02:08:28;;;;;;;25.63;16.25;;;;;;;3.22;75.16;97582.84;10099221;29;20108;-79
2021/03/05 02:13:48;;;;;;;27.13;17.17;;;;;;;3.21;75.60;97591.66;10116387;29;20040;-79
2021/03/05 02:20:01;;;;;;;30.67;19.27;;;;;;;3.13;75.54;97591.66;10142539;29;20060;-79
2021/03/05 02:25:47;;;;;;;34.47;20.95;;;;;;;3.04;75.41;97592.91;10123544;29;20400;-79
2021/03/05 02:31:18;;;;;;;31.33;20.13;;;;;;;3.00;75.30;97595.31;10115797;29;20048;-79
2021/03/05 02:36:52;;;;;;;30.30;19.75;;;;;;;2.87;75.00;97609.22;10116236;29;20051;-79
2021/03/05 02:42:42;;;;;;;33.50;20.52;;;;;;;2.83;75.81;97617.84;10116706;29;20066;-79
2021/03/05 02:48:12;;;;;;;33.25;19.88;;;;;;;2.83;74.99;97625.38;10141394;29;20051;-79
2021/03/05 02:53:34;;;;;;;32.10;19.50;;;;;;;2.76;75.38;97617.81;10114950;29;20048;-79
2021/03/05 02:58:53;;;;;;;28.55;17.88;;;;;;;2.77;75.12;97622.03;10102053;29;20052;-79
2021/03/05 03:04:13;;;;;;;30.83;17.50;;;;;;;2.76;75.62;97631.59;10114916;29;20048;-79
2021/03/05 03:09:33;;;;;;;28.10;16.70;;;;;;;2.70;75.45;97633.75;10114880;29;20051;-80
2021/03/05 03:14:53;;;;;;;25.95;15.98;;;;;;;2.66;75.94;97634.13;10101894;29;20045;-80
2021/03/05 03:20:17;;;;;;;21.90;14.13;;;;;;;2.58;75.79;97642.34;10113468;29;20052;-79
2021/03/05 03:25:37;;;;;;;21.60;13.52;;;;;;;2.58;75.63;97649.88;10101672;29;20056;-79
2021/03/05 03:30:56;;;;;;;21.35;13.55;;;;;;;2.54;75.74;97660.53;10127013;29;20049;-79
2021/03/05 03:36:16;;;;;;;19.77;13.48;;;;;;;2.51;75.92;97667.88;10100623;29;20041;-79
2021/03/05 03:41:37;;;;;;;19.38;12.00;;;;;;;2.50;75.61;97671.88;10100604;29;20055;-79
2021/03/05 03:46:57;;;;;;;19.70;12.73;;;;;;;2.52;75.62;97676.88;10113405;29;20052;-80
2021/03/05 03:52:25;;;;;;;19.42;12.48;;;;;;;2.56;75.88;97686.25;10100548;29;20124;-79
2021/03/05 03:57:46;;;;;;;16.15;11.15;;;;;;;2.58;75.87;97689.19;10114184;29;20053;-79
2021/03/05 04:03:06;;;;;;;20.02;12.77;;;;;;;2.56;75.33;97707.56;10112930;29;20445;-79
2021/03/05 04:08:26;;;;;;;18.52;11.52;;;;;;;2.56;75.53;97710.31;10099722;29;20556;-79
2021/03/05 04:13:46;;;;;;;17.30;11.60;;;;;;;2.54;75.88;97707.38;10112200;29;20056;-79
2021/03/05 04:19:06;;;;;;;14.23;10.18;;;;;;;2.51;75.92;97703.69;10112081;29;20048;-79
2021/03/05 04:24:26;;;;;;;14.93;10.60;;;;;;;2.53;75.54;97725.19;10125442;29;20051;-79
2021/03/05 04:29:45;;;;;;;13.23;9.32;;;;;;;2.54;75.61;97721.88;10124690;29;20044;-79
2021/03/05 04:35:06;;;;;;;13.55;9.60;;;;;;;2.61;75.93;97731.47;10098776;29;20052;-79
2021/03/05 04:40:26;;;;;;;14.18;9.65;;;;;;;2.63;76.10;97745.47;10111262;29;20045;-79
2021/03/05 04:45:46;;;;;;;14.00;10.23;;;;;;;2.69;75.90;97748.78;10111135;29;20068;-79
2021/03/05 04:51:06;;;;;;;14.43;10.00;;;;;;;2.70;75.65;97750.28;10110801;29;20402;-79
2021/03/05 04:56:26;;;;;;;12.77;9.30;;;;;;;2.72;76.00;97758.75;10097862;29;20134;-79
2021/03/05 05:01:45;;;;;;;11.70;8.98;;;;;;;2.77;75.41;97766.13;10097718;29;20053;-79
2021/03/05 05:07:05;;;;;;;13.95;9.85;;;;;;;2.79;75.14;97780.09;10097424;29;20056;-79
2021/03/05 05:12:24;;;;;;;15.35;10.88;;;;;;;2.79;75.65;97779.34;10097109;29;20056;-79
2021/03/05 05:17:44;;;;;;;15.45;10.88;;;;;;;2.78;75.41;97783.41;10110048;29;20049;-79
2021/03/05 05:23:04;;;;;;;15.45;11.27;;;;;;;2.80;75.19;97787.09;10109652;29;20051;-79
2021/03/05 05:28:24;;;;;;;15.38;10.40;;;;;;;2.80;75.82;97795.38;10097929;29;20048;-80
2021/03/05 05:33:44;;;;;;;12.82;9.00;;;;;;;2.81;75.45;97798.88;10136512;29;20051;-79
2021/03/05 05:39:04;;;;;;;13.50;9.48;;;;;;;2.82;75.26;97794.84;10123310;29;20047;-79
2021/03/05 05:44:24;;;;;;;12.18;8.68;;;;;;;2.79;75.26;97804.16;10123463;29;20056;-79
2021/03/05 05:49:44;;;;;;;12.00;8.73;;;;;;;2.75;75.42;97812.78;10097724;29;20045;-79
2021/03/05 05:55:05;;;;;;;12.25;8.90;;;;;;;2.77;75.63;97820.50;10109705;29;20048;-79
2021/03/05 06:00:26;;;;;;;11.40;8.80;;;;;;;2.82;75.54;97830.69;10148154;29;20063;-80
2021/03/05 06:05:49;;;;;;;11.77;8.43;;;;;;;2.86;75.89;97840.06;10124354;29;20049;-80
2021/03/05 06:11:09;;;;;;;12.90;8.95;;;;;;;2.94;75.60;97847.66;10110633;29;20096;-79
2021/03/05 06:16:29;;;;;;;9.63;7.55;;;;;;;2.97;75.60;97850.06;10124353;29;20047;-79
2021/03/05 06:21:49;;;;;;;10.35;8.10;;;;;;;3.07;75.30;97867.59;10097458;29;20055;-79
2021/03/05 06:27:09;;;;;;;9.48;7.75;;;;;;;3.23;75.53;97864.97;10097071;29;20045;-80
2021/03/05 06:32:35;;;;;;;9.82;7.25;;;;;;;3.41;75.22;97869.50;10123217;29;20044;-80
2021/03/05 06:37:55;;;;;;;9.18;6.90;;;;;;;3.81;74.71;97885.69;10123595;29;20044;-79
2021/03/05 06:43:15;;;;;;;8.40;6.20;;;;;;;4.13;74.95;97883.22;10095060;29;20064;-80
2021/03/05 06:48:50;;;;;;;8.80;6.72;;;;;;;4.60;74.20;97893.09;10130301;29;20044;-79
2021/03/05 06:54:15;;;;;;;10.82;8.60;;;;;;;4.64;73.67;97896.25;10129235;29;20484;-78
2021/03/05 06:59:37;;;;;;;;;;;;;;;4.46;73.86;97909.13;10142819;29;20072;-79
2021/03/05 07:04:57;;;;;;;10.70;6.82;;;;;;;4.26;73.97;97916.25;10125985;29;19923;-78
2021/03/05 07:10:19;;;;;;;12.05;8.88;;;;;;;4.11;73.32;97932.03;10133604;29;20052;-80
2021/03/05 07:15:54;;;;;;;11.35;8.38;;;;;;;3.81;73.92;97940.91;10166481;29;20068;-80
2021/03/05 07:21:18;;;;;;;10.23;7.73;;;;;;;3.61;74.06;97953.50;10144956;29;20496;-80
2021/03/05 07:26:43;;;;;;;9.55;6.65;;;;;;;3.44;74.11;97951.19;10119386;29;20044;-80
2021/03/05 07:32:08;;;;;;;9.13;7.10;;;;;;;3.40;74.59;97959.06;10146399;29;20840;-80
2021/03/05 07:37:37;;;;;;;12.00;8.05;;;;;;;3.48;74.55;97968.16;10142794;29;20052;-80
2021/03/05 07:43:01;;;;;;;8.45;6.63;;;;;;;3.42;74.28;97975.81;10165951;29;20067;-79
2021/03/05 07:48:20;;;;;;;7.90;6.20;;;;;;;3.54;73.65;97992.84;10147339;29;20476;-79
2021/03/05 07:53:54;;;;;;;7.93;6.05;;;;;;;3.80;73.81;97998.16;10121092;29;20048;-80
2021/03/05 07:59:40;;;;;;;10.45;7.40;;;;;;;4.19;73.38;98004.66;10123992;29;20052;-80
2021/03/05 08:05:05;;;;;;;8.27;6.72;;;;;;;4.22;73.77;98015.34;10134206;29;20044;-78
2021/03/05 08:10:36;;;;;;;8.95;6.13;;;;;;;4.17;73.19;98013.50;10115422;29;20048;-80
2021/03/05 08:16:28;;;;;;;9.00;6.57;;;;;;;4.00;73.29;98030.50;10121470;29;20481;-79
2021/03/05 08:21:51;;;;;;;9.55;6.30;;;;;;;3.86;73.89;98029.16;10177783;29;20389;-79
2021/03/05 08:27:18;;;;;;;8.02;6.00;;;;;;;3.82;73.64;98034.25;10164273;29;20048;-79
2021/03/05 08:32:44;;;;;;;7.70;5.20;;;;;;;3.72;73.19;98036.03;10164201;29;20076;-80
2021/03/05 08:38:07;;;;;;;4.60;3.50;;;;;;;3.62;73.22;98043.31;10163633;29;20448;-79
2021/03/05 08:43:27;;;;;;;2.97;2.00;;;;;;;3.54;73.19;98053.56;10151980;29;20063;-79
2021/03/05 08:48:48;;;;;;;2.33;1.50;;;;;;;3.70;72.71;98060.69;10162903;29;20062;-79
2021/03/05 08:54:08;;;;;;;3.90;1.50;;;;;;;3.89;72.47;98072.25;10146092;29;20044;-79
2021/03/05 08:59:28;;;;;;;2.58;1.50;;;;;;;4.23;72.46;98087.94;10143396;29;20115;-80
2021/03/05 09:04:48;;;;;;;3.83;2.80;;;;;;;11.50;73.11;98087.75;10162924;29;20095;-80
2021/03/05 09:10:08;;;;;;;3.88;1.95;;;;;;;21.92;57.91;98093.72;11288597;23;20131;-81
2021/03/05 09:15:57;;;;;;;1.80;1.50;;;;;;;18.48;48.40;98115.50;10978125;23;20078;31
2021/03/05 09:21:18;;;;;;;1.35;1.10;;;;;;;13.86;46.81;98111.44;10030466;29;20046;-85
2021/03/05 09:26:38;;;;;;;2.78;1.25;;;;;;;11.22;50.60;98117.25;10040936;29;20057;-81
2021/03/05 09:31:59;;;;;;;1.73;1.40;;;;;;;9.59;51.77;98126.81;10033908;29;20049;-81
2021/03/05 09:37:20;;;;;;;2.65;2.20;;;;;;;8.83;53.38;98139.69;10027468;29;20098;-80
2021/03/05 09:42:53;;;;;;;3.70;1.27;;;;;;;8.38;52.90;98157.56;10025467;29;20048;-81
2021/03/05 09:48:33;;;;;;;1.55;1.00;;;;;;;8.32;53.12;98152.97;10028602;29;20078;-80
2021/03/05 09:53:54;;;;;;;2.97;1.30;;;;;;;8.25;52.18;98172.50;10033207;29;20041;-81
2021/03/05 10:05:06;;;;;;;3.00;2.30;;;;;;;7.42;52.18;98182.84;11460028;23;20067;-81
2021/03/05 10:10:31;;;;;;;3.60;2.15;;;;;;;7.28;52.76;98192.75;10160614;29;20044;-81
2021/03/05 10:15:51;;;;;;;3.58;3.13;;;;;;;7.46;52.44;98191.56;10149313;23;20061;-81
2021/03/05 10:21:11;;;;;;;3.95;2.88;;;;;;;6.97;51.74;98203.97;10638958;23;20060;-80
2021/03/05 10:26:31;;;;;;;3.85;2.45;;;;;;;6.38;52.18;98215.34;10142920;29;20052;-78
2021/03/05 10:31:54;;;;;;;5.70;3.00;;;;;;;6.02;53.34;98221.06;10123139;29;20051;-79
2021/03/05 10:49:13;;;;;;;5.88;3.63;;;;;;;5.19;53.71;98255.47;10591403;23;20103;-82
2021/03/05 10:54:33;;;;;;;4.85;3.60;;;;;;;5.19;53.80;98249.94;10119389;29;20049;-79
2021/03/05 10:59:54;;;;;;;5.28;4.22;;;;;;;4.91;54.48;98259.03;10108377;29;20052;-77
2021/03/05 11:05:14;;;;;;;6.35;4.03;;;;;;;4.58;54.61;98260.66;10100683;29;20100;-78
2021/03/05 11:10:34;;;;;;;5.75;4.22;;;;;;;4.24;55.32;98272.53;10070878;29;20041;-81
2021/03/05 11:15:54;;;;;;;5.15;3.80;;;;;;;4.06;55.38;98267.22;10067940;29;20049;-80
2021/03/05 11:21:15;;;;;;;5.78;4.03;;;;;;;3.95;55.94;98285.50;10079813;29;20049;-79
2021/03/05 11:26:35;;;;;;;3.75;2.40;;;;;;;3.63;56.81;98293.25;10083972;29;20045;-79
2021/03/05 11:31:55;;;;;;;2.45;1.92;;;;;;;3.50;56.42;98302.31;10321260;23;20061;-77
2021/03/05 11:37:16;;;;;;;3.33;1.90;;;;;;;3.44;57.20;98304.44;10133798;29;20543;-87
2021/03/05 11:42:36;;;;;;;2.90;1.90;;;;;;;3.42;57.10;98301.47;10142977;29;20053;-84
2021/03/05 11:47:56;;;;;;;4.07;2.30;;;;;;;3.52;56.61;98308.06;10123320;29;20100;-79
2021/03/05 11:53:16;;;;;;;3.78;2.15;;;;;;;3.75;56.95;98316.59;10134196;29;20044;-80
2021/03/05 11:58:36;;;;;;;3.80;1.88;;;;;;;4.11;56.32;98314.03;10538665;23;20041;-83
2021/03/05 12:03:56;;;;;;;3.35;1.90;;;;;;;4.56;56.71;98319.25;10158026;23;20064;-79
2021/03/05 12:09:16;;;;;;;5.25;2.00;;;;;;;4.97;55.43;98323.25;10082615;29;20053;-83
2021/03/05 12:14:36;;;;;;;3.38;1.67;;;;;;;5.15;55.27;98324.28;10108414;29;20052;-80
2021/03/05 12:19:56;;;;;;;4.25;1.70;;;;;;;5.14;53.07;98333.88;10064722;29;20049;-80
2021/03/05 12:25:15;;;;;;;3.22;1.80;;;;;;;5.29;52.33;98331.19;10048920;29;20045;-79
2021/03/05 12:30:35;;;;;;;2.72;1.58;;;;;;;5.61;53.50;98332.84;10060799;29;20453;-79
2021/03/05 12:35:55;;;;;;;2.05;1.30;;;;;;;6.40;52.75;98353.44;10087176;29;20049;-79
2021/03/05 12:41:15;;;;;;;3.08;1.70;;;;;;;7.03;50.79;98365.50;10056702;29;20073;-79
2021/03/05 12:46:35;;;;;;;2.20;1.50;;;;;;;6.99;48.53;98367.91;10061336;29;20059;-78
2021/03/05 12:51:55;;;;;;;2.70;1.30;;;;;;;7.46;49.17;98367.28;10072039;29;20549;-77
2021/03/05 12:57:15;;;;;;;3.25;1.30;;;;;;;8.09;48.06;98366.50;10060738;29;20045;-80
2021/03/05 13:02:35;;;;;;;1.90;0.80;;;;;;;7.82;47.76;98382.22;10073039;29;20052;-80
2021/03/05 13:07:55;;;;;;;3.17;0.90;;;;;;;7.42;48.94;98380.06;10060005;29;20052;-78
2021/03/05 13:13:15;;;;;;;1.80;0.80;;;;;;;8.09;44.66;98399.88;10071760;29;20396;-80
2021/03/05 13:18:35;;;;;;;1.80;0.85;;;;;;;7.21;44.56;98410.09;10056310;29;20120;-79
2021/03/05 13:23:55;;;;;;;1.65;0.60;;;;;;;6.41;44.90;98408.34;10069090;29;20047;-78
2021/03/05 13:29:18;;;;;;;1.98;0.90;;;;;;;6.17;43.43;98425.44;10042463;29;20109;-79
2021/03/05 13:34:39;;;;;;;2.00;0.80;;;;;;;6.32;44.26;98428.28;10056472;29;20041;-80
2021/03/05 13:39:58;;;;;;;3.05;0.73;;;;;;;6.07;44.81;98430.03;10082395;29;20045;-79
2021/03/05 13:45:18;;;;;;;2.13;0.63;;;;;;;7.25;44.78;98438.97;10082331;29;20505;-79
2021/03/05 13:50:39;;;;;;;3.80;0.98;;;;;;;7.68;41.79;98456.72;10055838;29;20045;-78
2021/03/05 13:55:59;;;;;;;1.67;0.57;;;;;;;7.13;41.12;98452.47;10080858;29;20524;-79
2021/03/05 14:01:19;;;;;;;2.13;0.85;;;;;;;6.66;41.99;98458.53;10079850;29;20045;-78
2021/03/05 14:06:39;;;;;;;2.08;0.60;;;;;;;7.32;40.60;98470.81;10065641;29;20060;-78
2021/03/05 14:11:58;;;;;;;3.30;0.70;;;;;;;7.32;39.91;98468.03;10077920;29;20045;-79
2021/03/05 14:17:18;;;;;;;1.42;0.55;;;;;;;6.35;38.93;98473.59;10077375;29;20049;-78
2021/03/05 14:22:38;;;;;;;2.08;0.60;;;;;;;5.93;39.40;98485.59;10095912;29;20055;-79
2021/03/05 14:27:58;;;;;;;2.90;0.70;;;;;;;5.87;40.80;98496.03;10089104;29;20056;-79
2021/03/05 14:33:17;;;;;;;4.57;0.60;;;;;;;5.79;40.83;98509.13;10064902;29;20053;-80
2021/03/05 14:38:38;;;;;;;2.25;0.70;;;;;;;5.57;40.18;98512.47;10065564;29;20056;-78
2021/03/05 14:43:58;;;;;;;2.08;0.80;;;;;;;5.44;40.78;98519.56;10064612;29;20082;-79
2021/03/05 14:49:18;;;;;;;2.35;0.75;;;;;;;5.31;41.06;98527.97;10144907;23;20068;-78
2021/03/05 14:54:38;;;;;;;3.05;0.70;;;;;;;5.09;40.74;98534.75;10102930;29;20398;-78
2021/03/05 14:59:58;;;;;;;1.50;0.60;;;;;;;4.81;40.62;98549.22;10117314;29;20433;-78
2021/03/05 15:05:32;;;;;;;3.17;0.68;;;;;;;4.52;41.06;98550.34;10104877;29;20493;-78
2021/03/05 15:10:52;;;;;;;2.85;0.70;;;;;;;4.36;41.34;98559.75;10077561;29;20051;-79
2021/03/05 15:16:12;;;;;;;2.60;0.90;;;;;;;4.23;41.48;98563.97;11129492;23;20061;-80
2021/03/05 15:21:32;;;;;;;3.95;0.88;;;;;;;4.18;41.20;98564.84;10090425;29;20048;-79
2021/03/05 15:26:52;;;;;;;2.75;0.80;;;;;;;4.23;41.74;98579.81;10106281;29;20040;-83
2021/03/05 15:32:12;;;;;;;2.85;1.17;;;;;;;4.19;41.39;98585.69;10124486;29;20068;-79
2021/03/05 15:43:48;;;;;;;2.40;0.70;;;;;;;4.40;41.21;98594.06;10146123;23;20058;31
2021/03/05 15:49:08;;;;;;;1.40;0.75;;;;;;;4.25;41.08;98604.94;10370205;23;20048;-82
2021/03/05 15:54:28;;;;;;;2.03;0.60;;;;;;;4.05;41.43;98611.81;10140222;29;20049;-84
2021/03/05 15:59:49;;;;;;;2.97;0.70;;;;;;;3.97;41.61;98616.50;10132444;29;20048;-80
2021/03/05 16:05:10;;;;;;;2.45;0.63;;;;;;;3.58;41.50;98623.41;10104205;29;20134;-79
2021/03/05 16:10:30;;;;;;;2.10;0.57;;;;;;;3.35;41.98;98633.28;10092770;29;20048;-79
2021/03/05 16:15:50;;;;;;;2.28;0.93;;;;;;;3.28;41.65;98623.63;10102591;29;20483;-80
2021/03/05 16:21:09;;;;;;;4.57;1.38;;;;;;;3.33;42.28;98638.59;10113176;29;20469;-79
2021/03/05 16:26:30;;;;;;;5.00;1.23;;;;;;;3.38;42.41;98640.53;10099789;29;20540;-79
2021/03/05 16:31:50;;;;;;;1.63;0.80;;;;;;;3.12;41.78;98636.38;10099775;29;20048;-79
2021/03/05 16:37:11;;;;;;;2.13;0.85;;;;;;;2.78;42.35;98643.59;10100047;29;20461;-79
2021/03/05 16:42:31;;;;;;;1.67;0.50;;;;;;;2.49;42.56;98653.44;10116403;29;20136;-79
2021/03/05 16:47:51;;;;;;;2.15;0.70;;;;;;;2.40;42.19;98665.56;10121310;29;20453;-84
2021/03/05 16:53:10;;;;;;;3.05;1.10;;;;;;;2.38;42.55;98678.38;10123235;29;20044;-82
2021/03/05 16:58:30;;;;;;;5.75;0.95;;;;;;;2.27;42.65;98679.97;10138147;29;20052;-82
2021/03/05 17:03:50;;;;;;;3.00;1.02;;;;;;;2.10;42.98;98693.16;10136090;29;20048;-88
2021/03/05 17:09:10;;;;;;;4.95;1.10;;;;;;;1.90;43.40;98707.34;10083896;29;20055;-81
2021/03/05 17:14:30;;;;;;;2.72;1.15;;;;;;;1.69;44.44;98709.75;10081572;29;20077;-83
2021/03/05 17:19:50;;;;;;;4.07;1.17;;;;;;;1.51;43.70;98721.38;10044833;29;20476;-78
2021/03/05 17:25:11;;;;;;;5.25;1.83;;;;;;;1.34;43.94;98738.72;10084338;29;20064;-77
2021/03/05 17:30:30;;;;;;;5.22;3.60;;;;;;;1.21;44.46;98743.31;10097075;29;20078;-77
2021/03/05 17:35:50;;;;;;;7.53;5.00;;;;;;;1.06;44.78;98749.09;10071832;29;20041;-80
2021/03/05 17:41:12;;;;;;;8.98;4.70;;;;;;;0.85;45.61;98768.66;10097076;29;20119;-77
2021/03/05 17:46:31;;;;;;;13.63;9.15;;;;;;;0.73;45.85;98778.19;10096237;29;20456;-78
2021/03/05 17:51:51;;;;;;;11.80;6.40;;;;;;;0.65;46.03;98788.22;10109398;29;20052;-76
2021/03/05 17:57:11;;;;;;;14.68;8.40;;;;;;;0.53;46.33;98790.22;10108956;29;20052;-79
2021/03/05 18:02:31;;;;;;;14.52;7.97;;;;;;;0.46;46.91;98789.97;10073889;29;20072;-80
2021/03/05 18:07:51;;;;;;;17.05;10.90;;;;;;;0.42;46.75;98798.47;10083432;29;20049;-79
2021/03/05 18:13:11;;;;;;;23.55;14.00;;;;;;;0.38;46.75;98802.72;10109635;29;20139;-79
2021/03/05 18:18:39;;;;;;;17.52;11.20;;;;;;;0.26;47.48;98812.97;10097516;29;20052;-82
2021/03/05 18:23:59;;;;;;;19.35;10.30;;;;;;;0.20;47.65;98821.22;10090276;29;20161;-80
2021/03/05 18:29:19;;;;;;;16.60;8.27;;;;;;;0.17;48.14;98827.69;10109907;29;20045;-78
2021/03/05 18:34:39;;;;;;;15.35;8.35;;;;;;;0.25;47.83;98845.16;10099423;29;20116;-81
2021/03/05 18:39:59;;;;;;;15.77;8.20;;;;;;;0.38;48.17;98846.66;10098315;29;20047;-81
2021/03/05 18:45:19;;;;;;;12.05;5.50;;;;;;;0.52;48.71;98860.16;10111416;29;20067;-81
2021/03/05 18:50:39;;;;;;;11.20;6.18;;;;;;;0.61;48.59;98845.44;10086727;29;20037;-87
2021/03/05 18:55:59;;;;;;;11.85;6.30;;;;;;;0.65;48.82;98856.16;10094440;29;20072;-83
2021/03/05 19:01:19;;;;;;;10.88;6.50;;;;;;;0.70;49.40;98866.41;10123461;29;20095;-88
2021/03/05 19:06:45;;;;;;;17.40;9.07;;;;;;;0.67;49.32;98873.63;10730312;23;20056;31
2021/03/05 19:12:06;;;;;;;17.50;8.90;;;;;;;0.57;49.41;98881.38;9998281;29;20425;-80
2021/03/05 19:17:26;;;;;;;12.57;6.80;;;;;;;0.50;49.52;98889.41;9993666;29;20065;-80
2021/03/05 19:22:46;;;;;;;9.48;5.75;;;;;;;0.49;49.76;98894.16;10006971;29;20050;-79
2021/03/05 19:28:06;;;;;;;10.18;4.55;;;;;;;0.46;50.56;98894.38;10011965;29;20072;-79
2021/03/05 19:33:26;;;;;;;7.57;4.05;;;;;;;0.41;50.30;98903.38;10012024;29;20057;-79
2021/03/05 19:38:46;;;;;;;10.60;4.57;;;;;;;0.28;50.49;98912.81;10011811;29;20057;-79
2021/03/05 19:44:07;;;;;;;12.43;4.80;;;;;;;0.16;50.48;98908.56;10011943;29;20046;-79
2021/03/05 19:49:26;;;;;;;11.13;6.32;;;;;;;0.05;50.80;98913.28;10011925;29;20054;-80
2021/03/05 19:54:46;;;;;;;13.38;6.82;;;;;;;-0.09;51.54;98920.50;10011624;29;20107;-80
2021/03/05 20:00:07;;;;;;;11.73;5.63;;;;;;;-0.18;52.01;98928.94;10011107;29;20053;-79
2021/03/05 20:05:27;;;;;;;10.55;5.72;;;;;;;-0.26;52.15;98936.13;10008478;29;20393;-80
2021/03/05 20:10:46;;;;;;;10.82;6.40;;;;;;;-0.32;53.12;98939.59;10048706;29;20085;-80
2021/03/05 20:16:06;;;;;;;10.70;5.13;;;;;;;-0.36;52.77;98941.06;10035799;29;20470;-80
2021/03/05 20:21:26;;;;;;;12.98;7.25;;;;;;;-0.41;52.74;98947.28;10048517;29;20478;-79
2021/03/05 20:26:48;;;;;;;9.13;5.40;;;;;;;-0.44;52.22;98957.25;10035637;29;20053;-80
2021/03/05 20:32:08;;;;;;;8.95;4.82;;;;;;;-0.45;52.45;98960.47;10035343;29;20490;-78
2021/03/05 20:37:28;;;;;;;9.32;4.97;;;;;;;-0.47;52.84;98958.25;10022680;29;20046;-79
2021/03/05 20:42:48;;;;;;;14.30;7.40;;;;;;;-0.53;53.52;98965.66;10035146;29;20109;-77
2021/03/05 20:48:08;;;;;;;15.15;7.68;;;;;;;-0.57;53.80;98978.13;10048020;29;20050;-76
2021/03/05 20:53:27;;;;;;;14.65;8.07;;;;;;;-0.66;54.28;98990.78;10021908;29;20497;-77
2021/03/05 20:58:47;;;;;;;14.38;8.43;;;;;;;-0.76;54.20;98994.94;10035039;29;20042;-77
2021/03/05 21:04:07;;;;;;;16.92;8.73;;;;;;;-0.84;54.46;98993.16;10033149;29;20042;-77
2021/03/05 21:09:27;;;;;;;14.48;7.97;;;;;;;-0.90;54.69;98988.34;10032769;29;20111;-76
2021/03/05 21:14:47;;;;;;;12.02;7.35;;;;;;;-0.97;55.26;99004.47;10025275;29;20046;-78
2021/03/05 21:20:07;;;;;;;15.95;7.93;;;;;;;-0.99;55.25;99001.47;10046655;29;20049;-78
2021/03/05 21:25:27;;;;;;;11.13;6.97;;;;;;;-1.02;55.25;98999.72;10021533;29;20046;-78
2021/03/05 21:30:47;;;;;;;13.77;7.10;;;;;;;-1.06;55.54;99002.69;10033604;29;20049;-78
2021/03/05 21:36:07;;;;;;;10.40;5.50;;;;;;;-1.04;55.78;99010.44;10034263;29;20053;-78
2021/03/05 21:41:27;;;;;;;13.82;6.47;;;;;;;-1.05;56.05;99014.41;10008343;29;20042;-77
2021/03/05 21:46:47;;;;;;;10.32;5.43;;;;;;;-1.06;56.24;99019.13;10033175;29;20065;-77
2021/03/05 21:52:07;;;;;;;9.32;4.65;;;;;;;-1.05;56.59;99020.63;10020007;29;20057;-76
2021/03/05 21:57:26;;;;;;;10.20;4.60;;;;;;;-1.04;57.38;99027.63;10032692;29;20048;-77
2021/03/05 22:02:46;;;;;;;10.13;4.78;;;;;;;-1.07;56.45;99027.81;10045297;29;20056;-77
2021/03/05 22:08:06;;;;;;;6.78;3.90;;;;;;;-1.07;56.40;99025.84;10032085;29;20065;-78
2021/03/05 22:13:26;;;;;;;9.35;4.32;;;;;;;-1.07;56.77;99030.56;10032551;29;20048;-77
2021/03/05 22:18:46;;;;;;;7.65;4.32;;;;;;;-1.12;57.03;99032.03;10019393;29;20057;-78
2021/03/05 22:24:07;;;;;;;7.47;3.85;;;;;;;-1.11;56.81;99044.50;10033512;29;20049;-78
2021/03/05 22:29:27;;;;;;;10.48;5.30;;;;;;;-1.14;57.06;99044.72;10026804;29;20053;-76
2021/03/05 22:34:47;;;;;;;13.05;5.75;;;;;;;-1.21;57.21;99051.38;10026924;29;20058;-77
2021/03/05 22:40:07;;;;;;;14.38;7.57;;;;;;;-1.27;58.03;99040.34;10039315;29;20052;-77
2021/03/05 22:45:27;;;;;;;15.07;7.80;;;;;;;-1.30;57.68;99043.31;10038986;29;20045;-77
2021/03/05 22:50:47;;;;;;;11.52;6.30;;;;;;;-1.32;57.40;99054.75;10051931;29;20061;-77
2021/03/05 22:56:07;;;;;;;11.18;5.22;;;;;;;-1.38;57.63;99056.66;10025820;29;20046;-77
2021/03/05 23:01:30;;;;;;;9.05;5.55;;;;;;;-1.35;58.26;99063.16;10026188;29;20050;-78
2021/03/05 23:06:49;;;;;;;9.95;5.55;;;;;;;-1.33;58.38;99060.72;10024959;29;20054;-77
2021/03/05 23:12:09;;;;;;;8.73;5.00;;;;;;;-1.32;58.29;99067.69;9987726;29;20057;-77
2021/03/05 23:17:29;;;;;;;10.20;5.10;;;;;;;-1.37;58.18;99062.91;9974728;29;20069;-77
2021/03/05 23:22:49;;;;;;;11.27;5.05;;;;;;;-1.41;57.78;99071.34;9974649;29;20108;-77
2021/03/05 23:28:09;;;;;;;10.48;5.22;;;;;;;-1.41;58.39;99073.31;9974688;29;20050;-77
2021/03/05 23:33:29;;;;;;;11.15;5.05;;;;;;;-1.42;58.07;99074.56;9974411;29;20057;-78
2021/03/05 23:38:49;;;;;;;9.32;4.72;;;;;;;-1.43;58.13;99081.28;9960722;29;20482;-78
2021/03/05 23:44:09;;;;;;;7.60;4.07;;;;;;;-1.42;58.76;99096.47;9986646;29;20057;-76
2021/03/05 23:49:29;;;;;;;10.77;5.00;;;;;;;-1.44;58.50;99094.22;9961342;29;20085;-77
2021/03/05 23:54:49;;;;;;;8.95;4.32;;;;;;;-1.47;58.41;99098.66;9961021;29;20042;-77
